Te Ho — H3MG — position and weather

sailwx.info

Track history (hours):
 
Tides and Currents Weather Stations Pressure Air Temp Water Temp Dewpoint Dewpoint Depression Visibility Wind Speed Wind Dir Waves Ship Positions

Te Ho

Last reported at 2018-Apr-24 06:32 UTC. Time now 2018-May-25 11:09 UTC.
Position S 33°20' E 032°18'.
Warning: this ship's position is 31 days out of date.

Length 225 m; draft 14.2 m.

Type: Cargo ship. MMSI: 353837000.

Date/timePositionNaut miles runAvg speedWind from/ knotsBaromVisibWave heightAir tempDewpointWater temp
2018-Apr-24 06:32S 33°20' E 032°18'011.1
2018-Apr-24 06:30S 33°19' E 032°18'811.7
2018-Apr-24 05:51S 33°16' E 032°26'411.7
2018-Apr-24 05:30S 33°15' E 032°31'612.1
2018-Apr-24 05:00S 33°12' E 032°37'612.2
2018-Apr-24 04:30S 33°09' E 032°44'612.4
2018-Apr-24 04:00S 33°07' E 032°51'6212.3
2018-Apr-23 22:58S 32°41' E 033°59'1512.5
2018-Apr-23 21:44S 32°36' E 034°16'2612.3
2018-Apr-23 19:35S 32°26' E 034°44'  
Track history (hours):
 
Tides and Currents Weather Stations Pressure Air Temp Water Temp Dewpoint Dewpoint Depression Visibility Wind Speed Wind Dir Waves Ship Positions

Te Ho

Last reported at 2018-Apr-24 06:32 UTC. Time now 2018-May-25 11:09 UTC.
Position S 33°20' E 032°18'.
Warning: this ship's position is 31 days out of date.

Length 225 m; draft 14.2 m.

Type: Cargo ship. MMSI: 353837000.

Date/timePositionNaut miles runAvg speedWind from/ knotsBaromVisibWave heightAir tempDewpointWater temp
2018-Apr-24 06:32S 33°20' E 032°18'011.1
2018-Apr-24 06:30S 33°19' E 032°18'811.7
2018-Apr-24 05:51S 33°16' E 032°26'411.7
2018-Apr-24 05:30S 33°15' E 032°31'612.1
2018-Apr-24 05:00S 33°12' E 032°37'612.2
2018-Apr-24 04:30S 33°09' E 032°44'612.4
2018-Apr-24 04:00S 33°07' E 032°51'6212.3
2018-Apr-23 22:58S 32°41' E 033°59'1512.5
2018-Apr-23 21:44S 32°36' E 034°16'2612.3
2018-Apr-23 19:35S 32°26' E 034°44'  

Dump ship's entire track history